Time;durP1;ratioP1;P1;durP2;ratioP2;P2;SDS_P1;SDS_P2;PMS_P1;PMS_P2;Temp;Humidity;BMP_temperature;BMP_pressure;BME280_temperature;BME280_humidity;BME280_pressure;Samples;Min_cycle;Max_cycle;Signal;HPM_P1;HPM_P2
2023/05/22 00:01:27;;;;;;;19.77;11.93;;;16.10;99.90;;;;;;4985617;28;20031;-64
2023/05/22 00:03:53;;;;;;;16.85;11.10;;;16.10;99.90;;;;;;4969092;28;20030;-64
2023/05/22 00:06:19;;;;;;;16.40;11.68;;;16.00;99.90;;;;;;4989005;28;20026;-64
2023/05/22 00:08:44;;;;;;;19.17;12.00;;;15.90;99.90;;;;;;4990028;28;20022;-64
2023/05/22 00:11:10;;;;;;;16.08;10.90;;;15.90;99.90;;;;;;4987659;28;20030;-64
2023/05/22 00:13:36;;;;;;;23.52;12.00;;;15.80;99.90;;;;;;4984940;28;20055;-64
2023/05/22 00:16:02;;;;;;;19.13;12.05;;;15.80;99.90;;;;;;4960353;28;20113;-64
2023/05/22 00:18:27;;;;;;;18.10;11.55;;;15.70;99.90;;;;;;4989084;28;20029;-65
2023/05/22 00:20:53;;;;;;;16.38;11.13;;;15.80;99.90;;;;;;4987876;28;20045;-63
2023/05/22 00:23:20;;;;;;;19.90;11.40;;;15.70;99.90;;;;;;4989029;28;20026;-64
2023/05/22 00:25:46;;;;;;;17.58;11.65;;;15.70;99.90;;;;;;4954128;28;20126;-64
2023/05/22 00:28:12;;;;;;;15.85;11.02;;;15.70;99.90;;;;;;4988661;28;20101;-64
2023/05/22 00:30:37;;;;;;;16.17;11.60;;;15.60;99.90;;;;;;4991742;28;20587;-64
2023/05/22 00:33:03;;;;;;;17.10;11.75;;;15.60;99.90;;;;;;4993269;28;20030;-64
2023/05/22 00:35:29;;;;;;;17.30;11.50;;;15.60;99.90;;;;;;4988292;28;20030;-64
2023/05/22 00:37:55;;;;;;;19.20;11.30;;;15.60;99.90;;;;;;4990158;28;20532;-64
2023/05/22 00:40:21;;;;;;;18.55;12.15;;;15.60;99.90;;;;;;4991559;28;20033;-63
2023/05/22 00:42:46;;;;;;;19.80;11.93;;;15.60;99.90;;;;;;4989374;28;20022;-64
2023/05/22 00:45:13;;;;;;;16.63;10.88;;;15.50;99.90;;;;;;4974837;28;20113;-63
2023/05/22 00:47:39;;;;;;;17.25;11.70;;;15.60;99.90;;;;;;4975199;28;20029;-63
2023/05/22 00:50:06;;;;;;;18.33;11.20;;;15.60;99.90;;;;;;4985607;28;20030;-64
2023/05/22 00:52:36;;;;;;;20.55;11.55;;;15.70;99.90;;;;;;4989589;28;20038;-64
2023/05/22 00:55:02;;;;;;;16.45;11.13;;;15.70;99.90;;;;;;4989696;28;20037;-64
2023/05/22 00:57:29;;;;;;;18.63;11.35;;;15.70;99.90;;;;;;4992403;28;20088;-65
2023/05/22 00:59:55;;;;;;;21.42;12.05;;;15.70;99.90;;;;;;4990871;28;20106;-64
2023/05/22 01:02:21;;;;;;;20.85;13.07;;;15.70;99.90;;;;;;4986426;28;20073;-63
2023/05/22 01:04:47;;;;;;;17.55;11.88;;;15.60;99.90;;;;;;4990454;28;20512;-64
2023/05/22 01:07:15;;;;;;;16.02;11.88;;;15.60;99.90;;;;;;4991362;28;20632;-64
2023/05/22 01:09:41;;;;;;;16.70;11.82;;;15.50;99.90;;;;;;4991933;28;20034;-64
2023/05/22 01:12:19;;;;;;;18.45;12.00;;;15.50;99.90;;;;;;4969836;28;20027;-64
2023/05/22 01:15:16;;;;;;;17.73;12.57;;;15.40;99.90;;;;;;4982547;28;20057;-64
2023/05/22 01:18:09;;;;;;;18.17;12.45;;;15.40;99.90;;;;;;4991093;28;20080;-63
2023/05/22 01:20:47;;;;;;;19.95;11.70;;;15.30;99.90;;;;;;4988101;28;20053;-64
2023/05/22 01:23:18;;;;;;;17.88;12.45;;;15.30;99.90;;;;;;4990534;28;20042;-64
2023/05/22 01:26:03;;;;;;;18.77;12.30;;;15.30;99.90;;;;;;4964957;28;20132;-64
2023/05/22 01:28:55;;;;;;;22.63;12.90;;;15.20;99.90;;;;;;4989534;28;20132;-64
2023/05/22 01:31:25;;;;;;;18.77;12.43;;;15.20;99.90;;;;;;4987086;28;20507;-64
2023/05/22 01:33:55;;;;;;;16.52;12.15;;;15.10;99.90;;;;;;4986511;28;20069;-64
2023/05/22 01:36:24;;;;;;;18.25;12.90;;;15.20;99.90;;;;;;4988409;28;20034;-65
2023/05/22 01:38:51;;;;;;;17.15;12.55;;;15.10;99.90;;;;;;4991138;28;20515;-65
2023/05/22 01:41:17;;;;;;;24.75;14.48;;;15.20;99.90;;;;;;4986869;28;20030;-65
2023/05/22 01:43:44;;;;;;;17.75;13.10;;;15.10;99.90;;;;;;4989710;28;20072;-64
2023/05/22 01:46:10;;;;;;;20.73;13.82;;;15.10;99.90;;;;;;4990486;28;20038;-63
2023/05/22 01:48:36;;;;;;;20.83;13.93;;;15.10;99.90;;;;;;4986058;28;20039;-65
2023/05/22 01:51:12;;;;;;;20.58;15.00;;;15.10;99.90;;;;;;4988161;28;20123;-65
2023/05/22 01:53:56;;;;;;;19.50;14.18;;;15.00;99.90;;;;;;4985072;28;20058;-65
2023/05/22 01:56:33;;;;;;;23.75;14.73;;;15.00;99.90;;;;;;4991434;28;20088;-64
2023/05/22 01:59:18;;;;;;;21.70;14.38;;;15.00;99.90;;;;;;4962388;28;22606;-64
2023/05/22 02:01:44;;;;;;;21.70;14.57;;;15.00;99.90;;;;;;4975894;28;20022;-63
2023/05/22 02:04:11;;;;;;;20.63;12.85;;;14.90;99.90;;;;;;4987241;28;20030;-65
2023/05/22 02:06:38;;;;;;;23.17;15.40;;;14.90;99.90;;;;;;4987678;28;20022;-64
2023/05/22 02:09:05;;;;;;;20.48;13.93;;;14.90;99.90;;;;;;4991410;28;20562;-64
2023/05/22 02:11:33;;;;;;;20.90;14.35;;;14.90;99.90;;;;;;4990798;28;20033;-65
2023/05/22 02:14:00;;;;;;;22.90;14.57;;;14.90;99.90;;;;;;4987534;28;20030;-64
2023/05/22 02:16:27;;;;;;;23.67;16.05;;;14.90;99.90;;;;;;4966853;28;20034;-64
2023/05/22 02:19:04;;;;;;;23.42;15.23;;;14.80;99.90;;;;;;4979315;28;20023;-64
2023/05/22 02:21:31;;;;;;;23.02;14.27;;;14.80;99.90;;;;;;4985202;28;20436;-64
2023/05/22 02:23:57;;;;;;;21.08;14.98;;;14.80;99.90;;;;;;4990872;28;20022;-65
2023/05/22 02:26:22;;;;;;;23.33;15.35;;;14.80;99.90;;;;;;4969574;28;20052;-64
2023/05/22 02:28:48;;;;;;;24.13;15.77;;;14.70;99.90;;;;;;4989578;28;20127;-64
2023/05/22 02:31:15;;;;;;;25.02;15.32;;;14.70;99.90;;;;;;4990182;28;20056;-65
2023/05/22 02:33:40;;;;;;;22.60;14.63;;;14.70;99.90;;;;;;4991447;28;20054;-64
2023/05/22 02:36:09;;;;;;;22.33;14.90;;;14.70;99.90;;;;;;4974508;28;20499;-65
2023/05/22 02:38:35;;;;;;;21.50;13.57;;;14.60;99.90;;;;;;4991292;28;20586;-64
2023/05/22 02:41:01;;;;;;;25.63;13.77;;;14.60;99.90;;;;;;4987738;28;20113;-64
2023/05/22 02:43:26;;;;;;;21.80;14.98;;;14.50;99.90;;;;;;4986052;28;20109;-65
2023/05/22 02:45:52;;;;;;;25.48;16.42;;;14.50;99.90;;;;;;4984591;28;20030;-64
2023/05/22 02:48:18;;;;;;;24.83;14.98;;;14.50;99.90;;;;;;4987950;28;20101;-64
2023/05/22 02:50:43;;;;;;;21.92;14.50;;;14.40;99.90;;;;;;4989478;28;20039;-65
2023/05/22 02:53:09;;;;;;;20.00;14.82;;;14.40;99.90;;;;;;4987352;28;20088;-65
2023/05/22 02:55:35;;;;;;;23.67;14.10;;;14.30;99.90;;;;;;4987709;28;20483;-64
2023/05/22 02:58:02;;;;;;;21.75;13.23;;;14.30;99.90;;;;;;4987730;28;20157;-64
2023/05/22 03:00:27;;;;;;;20.35;14.48;;;14.20;99.90;;;;;;4985900;28;20035;-65
2023/05/22 03:02:53;;;;;;;21.70;14.52;;;14.20;99.90;;;;;;4988131;28;20035;-64
2023/05/22 03:05:19;;;;;;;21.48;14.27;;;14.20;99.90;;;;;;4986481;28;20030;-64
2023/05/22 03:07:44;;;;;;;23.55;14.43;;;14.10;99.90;;;;;;4989760;28;20022;-65
2023/05/22 03:10:10;;;;;;;21.45;14.55;;;14.10;99.90;;;;;;4988558;28;20244;-65
2023/05/22 03:12:36;;;;;;;21.15;13.88;;;14.10;99.90;;;;;;4985646;28;20484;-65
2023/05/22 03:15:02;;;;;;;20.95;13.13;;;14.10;99.90;;;;;;4987192;28;20038;-65
2023/05/22 03:17:28;;;;;;;23.48;14.93;;;14.00;99.90;;;;;;4985609;28;20038;-65
2023/05/22 03:19:53;;;;;;;18.83;12.48;;;14.00;99.90;;;;;;4986673;28;20081;-65
2023/05/22 03:22:20;;;;;;;23.63;14.88;;;14.00;99.90;;;;;;4987705;28;20042;-65
2023/05/22 03:24:45;;;;;;;22.38;14.52;;;13.90;99.90;;;;;;4971804;28;20047;-65
2023/05/22 03:27:14;;;;;;;23.08;14.30;;;13.90;99.90;;;;;;4983937;28;20650;-65
2023/05/22 03:29:40;;;;;;;27.48;16.33;;;13.90;99.90;;;;;;4988293;28;20096;-65
2023/05/22 03:32:06;;;;;;;20.67;14.60;;;13.90;99.90;;;;;;4987639;28;20484;-64
2023/05/22 03:34:31;;;;;;;21.92;14.65;;;13.90;99.90;;;;;;4982153;28;20062;-65
2023/05/22 03:36:57;;;;;;;29.15;16.13;;;13.90;99.90;;;;;;4990055;28;20034;-65
2023/05/22 03:39:23;;;;;;;25.67;15.40;;;13.80;99.90;;;;;;4987943;28;20062;-64
2023/05/22 03:41:48;;;;;;;22.05;13.73;;;13.80;99.90;;;;;;4990134;28;20433;-64
2023/05/22 03:44:14;;;;;;;27.65;15.82;;;13.90;99.90;;;;;;4985666;28;20682;-65
2023/05/22 03:46:39;;;;;;;25.70;15.45;;;13.90;99.90;;;;;;4987452;28;20026;-65
2023/05/22 03:49:05;;;;;;;27.55;18.73;;;13.90;99.90;;;;;;4987083;28;20117;-65
2023/05/22 03:51:31;;;;;;;24.00;15.85;;;13.90;99.90;;;;;;4986714;28;20023;-64
2023/05/22 03:53:56;;;;;;;23.33;15.77;;;13.90;99.90;;;;;;4989125;28;20514;-64
2023/05/22 03:56:22;;;;;;;27.30;17.90;;;13.90;99.90;;;;;;4989588;28;20030;-65
2023/05/22 03:58:49;;;;;;;24.95;15.82;;;14.00;99.90;;;;;;4986407;28;20480;-65
2023/05/22 04:01:15;;;;;;;29.42;17.88;;;14.00;99.90;;;;;;4985250;28;20026;-63
2023/05/22 04:03:41;;;;;;;27.27;18.75;;;13.90;99.90;;;;;;4988545;28;20413;-65
2023/05/22 04:06:07;;;;;;;23.77;15.85;;;14.00;99.90;;;;;;4989858;28;20080;-65
2023/05/22 04:08:32;;;;;;;26.95;17.30;;;14.00;99.90;;;;;;4992603;28;20499;-65
2023/05/22 04:10:58;;;;;;;35.33;19.25;;;14.00;99.90;;;;;;4993934;28;20396;-64
2023/05/22 04:13:25;;;;;;;36.95;21.02;;;14.10;99.90;;;;;;4993677;28;20111;-64
2023/05/22 04:15:52;;;;;;;40.13;20.88;;;14.20;99.90;;;;;;4994147;28;20033;-65
2023/05/22 04:18:18;;;;;;;39.42;22.70;;;14.30;99.90;;;;;;4993236;28;20056;-64
2023/05/22 04:20:43;;;;;;;40.03;22.50;;;14.30;99.90;;;;;;4992605;28;20476;-65
2023/05/22 04:23:09;;;;;;;38.45;20.13;;;14.40;99.90;;;;;;4994174;28;20030;-62
2023/05/22 04:25:35;;;;;;;38.17;20.10;;;14.50;99.90;;;;;;4977305;28;20050;-64
2023/05/22 04:28:04;;;;;;;30.63;20.55;;;14.50;99.90;;;;;;4988261;28;20030;-64
2023/05/22 04:30:32;;;;;;;44.08;22.30;;;14.60;99.90;;;;;;4989733;28;20026;-65
2023/05/22 04:32:59;;;;;;;39.60;21.08;;;14.70;99.90;;;;;;4990512;28;20034;-65
2023/05/22 04:35:25;;;;;;;37.50;23.75;;;14.80;99.90;;;;;;4989924;28;20018;-64
2023/05/22 04:37:50;;;;;;;41.00;23.83;;;14.90;99.90;;;;;;4990542;28;20092;-64
2023/05/22 04:40:16;;;;;;;37.78;23.70;;;15.00;99.90;;;;;;4988512;28;20077;-64
2023/05/22 04:42:41;;;;;;;47.00;24.08;;;15.10;99.90;;;;;;4991249;28;20400;-64
2023/05/22 04:45:08;;;;;;;41.70;24.20;;;15.20;99.90;;;;;;4988288;28;20500;-64
2023/05/22 04:47:36;;;;;;;40.10;24.08;;;15.20;99.90;;;;;;4990129;28;20488;-65
2023/05/22 04:50:03;;;;;;;42.75;23.95;;;15.30;99.90;;;;;;4990257;28;20058;-65
2023/05/22 04:52:28;;;;;;;35.88;20.65;;;15.30;99.90;;;;;;4987650;28;20038;-65
2023/05/22 04:54:54;;;;;;;35.13;19.58;;;15.40;99.90;;;;;;4991995;28;20038;-64
2023/05/22 04:57:20;;;;;;;49.72;21.92;;;15.40;99.90;;;;;;4987790;28;20109;-65
2023/05/22 04:59:46;;;;;;;41.53;21.50;;;15.50;99.90;;;;;;4991238;28;20605;-65
2023/05/22 05:02:15;;;;;;;41.60;21.00;;;15.50;99.90;;;;;;4990077;28;20026;-64
2023/05/22 05:04:42;;;;;;;34.03;20.73;;;15.60;99.90;;;;;;4985293;28;20050;-64
2023/05/22 05:07:08;;;;;;;44.13;20.25;;;15.60;99.90;;;;;;4987918;28;20441;-64
2023/05/22 05:09:33;;;;;;;39.88;20.40;;;15.70;99.90;;;;;;4972831;28;20050;-65
2023/05/22 05:11:59;;;;;;;33.40;19.67;;;15.60;99.90;;;;;;4990519;28;20077;-64
2023/05/22 05:14:25;;;;;;;28.35;18.67;;;15.80;99.90;;;;;;4973421;28;20049;-64
2023/05/22 05:16:51;;;;;;;33.65;17.33;;;15.90;99.90;;;;;;4987280;28;20029;-65
2023/05/22 05:19:20;;;;;;;36.63;18.80;;;15.90;99.90;;;;;;4986655;28;20076;-65
2023/05/22 05:21:48;;;;;;;36.42;17.65;;;15.90;99.90;;;;;;4989784;28;20034;-65
2023/05/22 05:24:17;;;;;;;49.05;18.67;;;15.80;99.90;;;;;;4989540;28;20092;-65
2023/05/22 05:26:42;;;;;;;45.78;19.92;;;15.70;99.90;;;;;;4973864;28;20112;-65
2023/05/22 05:29:08;;;;;;;35.70;17.85;;;15.70;99.90;;;;;;4990661;28;20488;-64
2023/05/22 05:31:34;;;;;;;34.05;17.52;;;15.90;99.90;;;;;;4989522;28;20042;-63
2023/05/22 05:33:59;;;;;;;28.40;18.48;;;16.10;99.90;;;;;;4985600;28;20492;-64
2023/05/22 05:36:25;;;;;;;30.27;18.02;;;16.20;99.90;;;;;;4985280;28;20022;-65
2023/05/22 05:38:51;;;;;;;30.25;17.83;;;16.50;99.90;;;;;;4988999;28;20037;-64
2023/05/22 05:41:17;;;;;;;33.83;18.27;;;16.60;99.90;;;;;;4991719;28;20069;-64
2023/05/22 05:43:43;;;;;;;33.63;17.73;;;16.80;99.90;;;;;;4991971;28;20233;-65
2023/05/22 05:46:09;;;;;;;34.05;19.00;;;16.90;99.90;;;;;;4990109;28;20026;-64
2023/05/22 05:48:34;;;;;;;42.25;20.42;;;16.90;99.90;;;;;;4992029;28;20052;-64
2023/05/22 05:51:00;;;;;;;32.92;20.20;;;16.80;99.90;;;;;;4989262;28;20030;-64
2023/05/22 05:53:27;;;;;;;32.10;18.75;;;16.80;99.90;;;;;;4989257;28;20035;-63
2023/05/22 05:55:53;;;;;;;33.20;17.50;;;17.00;99.90;;;;;;4988570;28;20046;-64
2023/05/22 05:58:18;;;;;;;29.30;18.85;;;17.10;99.90;;;;;;4989691;28;20062;-64
2023/05/22 06:00:44;;;;;;;44.78;20.08;;;17.20;99.90;;;;;;4990063;28;20070;-64
2023/05/22 06:03:10;;;;;;;42.65;21.13;;;17.00;99.90;;;;;;4985384;28;20074;-64
2023/05/22 06:05:35;;;;;;;41.45;21.73;;;16.80;99.90;;;;;;4982910;28;20015;-63
2023/05/22 06:08:01;;;;;;;33.08;19.67;;;16.70;99.90;;;;;;4990112;28;20741;-64
2023/05/22 06:10:27;;;;;;;38.20;22.83;;;16.80;99.90;;;;;;4989365;28;20034;-64
2023/05/22 06:12:52;;;;;;;35.53;22.52;;;16.80;99.90;;;;;;4984515;28;20136;-64
2023/05/22 06:15:18;;;;;;;43.78;23.95;;;16.90;99.90;;;;;;4989475;28;20037;-64
2023/05/22 06:17:43;;;;;;;37.08;23.92;;;17.00;99.90;;;;;;4988121;28;20034;-64
2023/05/22 06:20:09;;;;;;;38.65;22.17;;;17.20;99.90;;;;;;4988735;28;20030;-65
2023/05/22 06:22:35;;;;;;;39.88;21.80;;;17.30;99.90;;;;;;4986511;28;20031;-64
2023/05/22 06:25:01;;;;;;;36.22;21.83;;;17.30;99.90;;;;;;4971599;28;20113;-64
2023/05/22 06:27:26;;;;;;;42.22;25.20;;;17.60;99.90;;;;;;4991266;28;20036;-64
2023/05/22 06:29:52;;;;;;;47.95;24.83;;;17.50;99.90;;;;;;4988178;28;20096;-65
2023/05/22 06:32:18;;;;;;;38.42;23.95;;;17.60;99.90;;;;;;4989755;28;20041;-64
2023/05/22 06:34:45;;;;;;;47.15;25.42;;;17.80;99.90;;;;;;4989736;28;20030;-63
2023/05/22 06:37:11;;;;;;;42.85;25.25;;;17.80;99.90;;;;;;4985767;28;20031;-62
2023/05/22 06:39:37;;;;;;;38.70;24.23;;;18.00;99.90;;;;;;4982834;28;20025;-64
2023/05/22 06:42:03;;;;;;;48.88;26.25;;;18.10;99.90;;;;;;4985605;28;20031;-65
2023/05/22 06:44:29;;;;;;;40.72;24.08;;;18.20;99.90;;;;;;4990213;28;20392;-63
2023/05/22 06:46:55;;;;;;;41.15;24.17;;;18.20;99.90;;;;;;4987992;28;20030;-64
2023/05/22 06:49:20;;;;;;;42.00;24.33;;;18.30;99.90;;;;;;4988424;28;20058;-65
2023/05/22 06:51:46;;;;;;;43.22;25.33;;;18.50;99.90;;;;;;4985879;28;20073;-63
2023/05/22 06:54:12;;;;;;;43.88;24.67;;;18.50;99.90;;;;;;4986589;28;20485;-64
2023/05/22 06:56:39;;;;;;;44.38;24.00;;;18.50;99.90;;;;;;4987128;28;20034;-65
2023/05/22 06:59:05;;;;;;;47.42;24.60;;;18.70;99.90;;;;;;4990370;28;20030;-65
2023/05/22 07:01:30;;;;;;;43.35;25.95;;;18.60;99.90;;;;;;4983298;28;20496;-63
2023/05/22 07:04:00;;;;;;;46.95;27.23;;;18.70;99.90;;;;;;4970452;28;20026;-65
2023/05/22 07:06:26;;;;;;;43.38;25.25;;;18.90;99.90;;;;;;4980759;28;20034;-65
2023/05/22 07:08:52;;;;;;;47.15;28.73;;;19.00;99.90;;;;;;4987041;28;20390;-65
2023/05/22 07:11:18;;;;;;;47.97;28.02;;;18.90;99.90;;;;;;4987570;28;20034;-64
2023/05/22 07:13:44;;;;;;;47.50;27.52;;;18.90;99.90;;;;;;4985763;28;20045;-64
2023/05/22 07:16:09;;;;;;;43.40;27.60;;;19.20;99.90;;;;;;4981941;28;20396;-64
2023/05/22 07:18:35;;;;;;;51.92;29.05;;;19.50;99.90;;;;;;4989905;28;20085;-64
2023/05/22 07:21:01;;;;;;;48.55;30.90;;;19.30;99.90;;;;;;4980092;28;20023;-65
2023/05/22 07:23:27;;;;;;;51.88;31.83;;;19.50;99.90;;;;;;4988235;28;20105;-64
2023/05/22 07:25:52;;;;;;;50.67;31.65;;;19.90;99.90;;;;;;4971506;28;20409;-65
2023/05/22 07:28:18;;;;;;;51.17;33.45;;;20.10;99.90;;;;;;4987698;28;20030;-65
2023/05/22 07:30:44;;;;;;;64.93;35.88;;;19.70;99.90;;;;;;4989629;28;20113;-65
2023/05/22 07:33:10;;;;;;;59.40;35.50;;;19.90;99.90;;;;;;4990191;28;20057;-64
2023/05/22 07:35:35;;;;;;;52.95;31.55;;;19.90;99.90;;;;;;4986736;28;20381;-65
2023/05/22 07:38:01;;;;;;;52.58;32.65;;;19.90;99.90;;;;;;4985936;28;20029;-64
2023/05/22 07:40:27;;;;;;;56.20;33.90;;;19.90;99.90;;;;;;4975283;28;20499;-65
2023/05/22 07:42:52;;;;;;;59.58;34.70;;;20.00;99.90;;;;;;4993846;28;20104;-65
2023/05/22 07:45:18;;;;;;;52.63;32.65;;;20.10;99.90;;;;;;4992253;28;20018;-65
2023/05/22 07:47:43;;;;;;;53.92;33.75;;;20.20;99.90;;;;;;4991870;28;20032;-64
2023/05/22 07:50:09;;;;;;;60.15;35.67;;;20.70;99.90;;;;;;4984452;28;20042;-65
2023/05/22 07:52:35;;;;;;;64.05;34.67;;;20.70;99.90;;;;;;4980787;28;20503;-61
2023/05/22 07:55:01;;;;;;;58.08;35.10;;;21.30;99.90;;;;;;4980719;28;20077;-64
2023/05/22 07:57:28;;;;;;;49.60;30.48;;;21.60;99.90;;;;;;4980336;28;20248;-64
2023/05/22 07:59:54;;;;;;;52.28;29.45;;;21.90;99.90;;;;;;4977543;28;20034;-65
2023/05/22 08:02:21;;;;;;;47.47;29.08;;;23.00;99.90;;;;;;4976430;28;20030;-65
2023/05/22 08:04:47;;;;;;;52.45;31.33;;;24.40;99.90;;;;;;4982590;28;20082;-64
2023/05/22 08:07:12;;;;;;;52.03;32.40;;;25.30;99.90;;;;;;4978082;28;20026;-65
2023/05/22 08:09:38;;;;;;;57.13;33.08;;;24.30;99.90;;;;;;4978353;28;20765;-64
2023/05/22 08:12:05;;;;;;;53.63;33.22;;;23.90;99.90;;;;;;4979917;28;20409;-65
2023/05/22 08:14:31;;;;;;;50.60;32.13;;;24.00;99.90;;;;;;4975781;28;20074;-64
2023/05/22 08:16:57;;;;;;;57.22;32.50;;;24.30;99.90;;;;;;4977558;28;20118;-65
2023/05/22 08:19:23;;;;;;;49.20;28.95;;;25.10;99.90;;;;;;4978426;28;20365;-64
2023/05/22 08:21:51;;;;;;;54.38;30.95;;;26.00;98.60;;;;;;4990169;28;20105;-64
2023/05/22 08:24:17;;;;;;;44.97;28.10;;;26.10;96.70;;;;;;4991288;28;20053;-65
2023/05/22 08:26:43;;;;;;;49.08;30.05;;;26.40;97.10;;;;;;4975007;28;20452;-65
2023/05/22 08:29:08;;;;;;;46.08;29.02;;;26.40;96.30;;;;;;4989066;28;20081;-65
2023/05/22 08:31:34;;;;;;;42.85;27.70;;;27.10;96.40;;;;;;4984481;28;20404;-65
2023/05/22 08:34:01;;;;;;;42.30;27.33;;;27.90;93.80;;;;;;4990091;28;20031;-65
2023/05/22 08:36:30;;;;;;;43.33;28.02;;;28.00;92.00;;;;;;4990363;28;20471;-64
2023/05/22 08:38:56;;;;;;;46.10;27.98;;;27.40;92.70;;;;;;4991249;28;20038;-65
2023/05/22 08:41:22;;;;;;;45.05;28.35;;;27.30;94.00;;;;;;4988586;28;20022;-65
2023/05/22 08:43:47;;;;;;;37.15;25.48;;;26.40;95.10;;;;;;4993072;28;20026;-65
2023/05/22 08:46:14;;;;;;;42.38;29.02;;;26.30;95.90;;;;;;4991501;28;20395;-65
2023/05/22 08:48:41;;;;;;;45.90;27.30;;;26.80;95.10;;;;;;4981259;28;20045;-65
2023/05/22 08:51:07;;;;;;;47.78;30.42;;;26.40;95.40;;;;;;4986959;28;20031;-65
2023/05/22 08:53:37;;;;;;;43.75;28.75;;;25.80;95.60;;;;;;4989703;28;20109;-65
2023/05/22 08:56:05;;;;;;;46.53;29.75;;;25.90;96.10;;;;;;4982897;28;21823;-65
2023/05/22 08:58:33;;;;;;;46.92;30.42;;;27.20;95.30;;;;;;4987976;28;20030;-65
2023/05/22 09:01:00;;;;;;;52.35;32.40;;;26.90;94.40;;;;;;4983348;28;20030;-65
2023/05/22 09:03:27;;;;;;;52.38;30.73;;;27.30;93.30;;;;;;4993044;28;20396;-65
2023/05/22 09:05:53;;;;;;;56.78;32.42;;;27.30;93.40;;;;;;4989047;28;20033;-65
2023/05/22 09:08:19;;;;;;;54.83;35.50;;;27.50;92.90;;;;;;4992390;28;20034;-65
2023/05/22 09:10:44;;;;;;;51.13;32.75;;;28.30;91.90;;;;;;4972756;28;20142;-65
2023/05/22 09:13:21;;;;;;;54.80;35.17;;;28.10;91.60;;;;;;4992577;28;20022;-65
2023/05/22 09:15:47;;;;;;;53.05;33.03;;;27.40;91.70;;;;;;4987947;28;20416;-65
2023/05/22 09:18:13;;;;;;;64.38;37.22;;;27.50;92.70;;;;;;4991777;28;20041;-65
2023/05/22 09:20:38;;;;;;;60.30;35.22;;;27.20;92.30;;;;;;4989811;28;20022;-65
2023/05/22 09:23:16;;;;;;;57.42;35.15;;;27.10;92.70;;;;;;4993076;28;20113;-65
2023/05/22 09:25:43;;;;;;;59.15;35.72;;;27.00;92.80;;;;;;4985773;28;20424;-65
2023/05/22 09:28:10;;;;;;;63.40;37.83;;;26.60;92.30;;;;;;4972842;28;20069;-65
2023/05/22 09:30:36;;;;;;;63.92;37.90;;;25.90;93.40;;;;;;4980511;28;20072;-64
2023/05/22 09:33:03;;;;;;;59.65;37.72;;;25.70;94.50;;;;;;4989659;28;20073;-65
2023/05/22 09:35:32;;;;;;;65.20;39.60;;;25.70;94.50;;;;;;4987465;28;20473;-64
2023/05/22 09:37:58;;;;;;;66.50;41.00;;;25.60;94.70;;;;;;4973937;28;20064;-65
2023/05/22 09:40:27;;;;;;;55.95;39.13;;;25.10;95.20;;;;;;4988963;28;20029;-65
2023/05/22 09:42:53;;;;;;;63.78;40.50;;;25.40;94.60;;;;;;4986462;28;20058;-64
2023/05/22 09:45:22;;;;;;;62.05;40.85;;;25.60;94.50;;;;;;4986360;28;20493;-65
2023/05/22 09:47:49;;;;;;;63.58;40.40;;;25.80;94.00;;;;;;4983151;28;20018;-65
2023/05/22 09:50:15;;;;;;;60.80;39.78;;;25.60;94.20;;;;;;4973093;28;20113;-65
2023/05/22 09:52:44;;;;;;;61.30;39.20;;;25.30;94.70;;;;;;4988394;28;20114;-65
2023/05/22 09:55:12;;;;;;;54.60;37.28;;;25.50;94.70;;;;;;4989902;28;20104;-65
2023/05/22 09:57:50;;;;;;;60.60;36.92;;;25.80;93.50;;;;;;4992427;28;20034;-64
2023/05/22 10:00:18;;;;;;;59.45;37.08;;;25.70;94.00;;;;;;4985662;28;20019;-64
2023/05/22 10:02:46;;;;;;;55.72;36.47;;;25.80;93.80;;;;;;4990004;28;20103;-65
2023/05/22 10:05:22;;;;;;;60.03;38.45;;;25.20;93.70;;;;;;4984090;28;20026;-62
2023/05/22 10:07:54;;;;;;;49.08;34.47;;;24.50;94.80;;;;;;4989047;28;20073;-65
2023/05/22 10:10:23;;;;;;;52.78;36.63;;;24.50;96.20;;;;;;4985298;28;20038;-65
2023/05/22 10:13:06;;;;;;;48.08;32.50;;;24.20;97.40;;;;;;4968011;28;20033;-65
2023/05/22 10:15:33;;;;;;;;;;;24.70;96.00;;;;;;4987209;28;20034;-65
2023/05/22 10:17:59;;;;;;;51.42;34.95;;;24.50;95.80;;;;;;4986977;28;19913;-65
2023/05/22 10:20:27;;;;;;;53.35;34.33;;;24.10;97.30;;;;;;4986170;28;20022;-65
2023/05/22 10:22:54;;;;;;;51.90;33.78;;;24.00;98.40;;;;;;4989209;28;20026;-65
2023/05/22 10:25:22;;;;;;;56.15;36.70;;;23.70;98.00;;;;;;4986267;28;20026;-65
2023/05/22 10:27:51;;;;;;;49.00;33.03;;;24.00;97.30;;;;;;4971746;28;20050;-65
2023/05/22 10:30:23;;;;;;;53.20;34.78;;;24.20;97.70;;;;;;4987739;28;20088;-65
2023/05/22 10:32:55;;;;;;;51.72;36.13;;;24.10;97.90;;;;;;4988692;28;20049;-64
2023/05/22 10:35:39;;;;;;;47.80;32.97;;;24.40;97.80;;;;;;4987966;28;20029;-64
2023/05/22 10:38:14;;;;;;;57.22;36.05;;;24.90;97.20;;;;;;4985014;28;20101;-64
2023/05/22 10:40:40;;;;;;;50.92;34.25;;;25.10;95.90;;;;;;4988792;28;20101;-64
2023/05/22 10:43:06;;;;;;;51.47;34.15;;;24.40;97.10;;;;;;4986072;28;20105;-65
2023/05/22 10:45:32;;;;;;;51.45;34.03;;;24.50;97.40;;;;;;4986028;28;20105;-64
2023/05/22 10:48:05;;;;;;;52.13;34.03;;;24.20;97.30;;;;;;4980796;28;20047;-65
2023/05/22 10:50:31;;;;;;;51.80;33.22;;;24.20;97.30;;;;;;4980266;28;20073;-65
2023/05/22 10:53:25;;;;;;;53.67;35.17;;;24.10;98.00;;;;;;4986047;28;20030;-65
2023/05/22 10:55:55;;;;;;;46.13;32.00;;;24.00;97.90;;;;;;4983435;28;20028;-65
2023/05/22 10:58:35;;;;;;;45.65;30.52;;;24.10;97.50;;;;;;4981024;28;20128;-65
2023/05/22 11:01:17;;;;;;;51.25;32.72;;;23.90;98.00;;;;;;4979601;28;20049;-65
2023/05/22 11:04:11;;;;;;;44.72;29.45;;;23.70;98.10;;;;;;4980029;28;20044;-64
2023/05/22 11:06:44;;;;;;;50.72;31.95;;;23.70;99.20;;;;;;4978867;28;20117;-65
2023/05/22 11:09:17;;;;;;;55.53;34.22;;;23.90;98.20;;;;;;4982316;28;20036;-65
2023/05/22 11:11:43;;;;;;;;;;;24.40;97.70;;;;;;4983799;28;20026;-65
2023/05/22 11:14:10;;;;;;;47.83;31.70;;;24.50;97.90;;;;;;4980062;28;19910;-65
2023/05/22 11:16:37;;;;;;;42.53;29.95;;;24.90;97.30;;;;;;4989042;28;20031;-66
2023/05/22 11:19:07;;;;;;;40.47;27.67;;;24.90;97.40;;;;;;4979569;28;20060;-66
2023/05/22 11:21:51;;;;;;;41.42;26.90;;;24.80;96.40;;;;;;4966438;28;20037;-65
2023/05/22 11:24:17;;;;;;;38.13;26.88;;;24.90;96.70;;;;;;4934473;28;1123389;-64
2023/05/22 11:26:43;;;;;;;45.65;27.30;;;25.00;96.60;;;;;;4965254;28;20460;-65
2023/05/22 11:29:09;;;;;;;39.58;26.13;;;24.50;96.90;;;;;;4987344;28;20023;-65
2023/05/22 11:31:36;;;;;;;43.42;27.75;;;24.70;97.30;;;;;;4982504;28;20492;-66
2023/05/22 11:34:02;;;;;;;41.55;26.58;;;24.70;96.00;;;;;;4983370;28;20145;-64
2023/05/22 11:36:28;;;;;;;36.92;25.85;;;24.20;97.00;;;;;;4978205;28;20034;-65
2023/05/22 11:39:01;;;;;;;31.88;22.13;;;24.00;97.80;;;;;;4985648;28;20404;-65
2023/05/22 11:41:33;;;;;;;38.17;23.65;;;24.20;97.80;;;;;;4988693;28;20120;-65
2023/05/22 11:43:59;;;;;;;41.92;25.45;;;24.40;97.20;;;;;;4984370;28;20496;-65
2023/05/22 11:46:26;;;;;;;39.85;25.05;;;24.20;96.50;;;;;;4980244;28;20022;-65
2023/05/22 11:48:52;;;;;;;33.50;21.45;;;23.90;97.50;;;;;;4981854;28;20018;-65
2023/05/22 11:51:20;;;;;;;36.92;23.02;;;23.80;98.80;;;;;;4984038;28;20045;-64
2023/05/22 11:53:46;;;;;;;40.17;24.77;;;24.10;98.20;;;;;;4980579;28;20243;-65
2023/05/22 11:56:12;;;;;;;36.60;24.25;;;23.50;99.40;;;;;;4986079;28;20027;-65
2023/05/22 11:58:37;;;;;;;41.85;24.48;;;23.70;99.60;;;;;;4988476;28;20053;-65
2023/05/22 12:01:04;;;;;;;37.78;24.40;;;23.80;99.10;;;;;;4979572;28;20031;-64
2023/05/22 12:03:31;;;;;;;39.88;24.15;;;24.00;98.60;;;;;;4977386;28;20085;-65
2023/05/22 12:05:57;;;;;;;37.22;22.92;;;24.30;98.20;;;;;;4985023;28;20018;-64
2023/05/22 12:08:23;;;;;;;33.63;22.75;;;24.50;98.30;;;;;;4980462;28;20041;-64
2023/05/22 12:10:50;;;;;;;38.03;24.17;;;24.40;98.90;;;;;;4984056;28;20026;-64
2023/05/22 12:13:25;;;;;;;39.80;24.52;;;24.50;97.70;;;;;;4984661;28;20027;-64
2023/05/22 12:15:53;;;;;;;38.97;24.15;;;24.20;98.50;;;;;;4984995;28;20034;-65
2023/05/22 12:18:19;;;;;;;40.63;23.45;;;24.00;99.90;;;;;;4987574;28;20072;-64
2023/05/22 12:20:44;;;;;;;36.33;24.08;;;23.60;99.20;;;;;;4984298;28;20496;-65
2023/05/22 12:23:31;;;;;;;35.97;23.00;;;23.70;99.90;;;;;;4987381;28;20014;-65
2023/05/22 12:26:08;;;;;;;42.58;25.33;;;23.90;99.40;;;;;;4988463;28;20042;-64
2023/05/22 12:28:34;;;;;;;35.35;24.27;;;23.90;99.00;;;;;;4976909;28;20046;-65
2023/05/22 12:31:00;;;;;;;40.10;23.70;;;23.70;99.40;;;;;;4991053;28;20418;-64